sensor_id;sensor_type;location;lat;lon;timestamp;P1;durP1;ratioP1;P2;durP2;ratioP2
66298;SDS011;53098;47.658;8.578;2023-07-20T00:01:01;4.75;;;1.45;;
66298;SDS011;53098;47.658;8.578;2023-07-20T00:03:27;5.35;;;1.30;;
66298;SDS011;53098;47.658;8.578;2023-07-20T00:05:52;7.07;;;1.55;;
66298;SDS011;53098;47.658;8.578;2023-07-20T00:08:18;3.83;;;1.42;;
66298;SDS011;53098;47.658;8.578;2023-07-20T00:10:43;3.80;;;1.50;;
66298;SDS011;53098;47.658;8.578;2023-07-20T00:13:10;7.13;;;1.10;;
66298;SDS011;53098;47.658;8.578;2023-07-20T00:15:36;5.80;;;1.70;;
66298;SDS011;53098;47.658;8.578;2023-07-20T00:18:02;5.90;;;1.50;;
66298;SDS011;53098;47.658;8.578;2023-07-20T00:20:27;3.42;;;1.15;;
66298;SDS011;53098;47.658;8.578;2023-07-20T00:22:53;4.43;;;1.30;;
66298;SDS011;53098;47.658;8.578;2023-07-20T00:25:18;4.50;;;1.33;;
66298;SDS011;53098;47.658;8.578;2023-07-20T00:27:44;5.15;;;1.50;;
66298;SDS011;53098;47.658;8.578;2023-07-20T00:30:09;5.75;;;1.40;;
66298;SDS011;53098;47.658;8.578;2023-07-20T00:32:35;5.93;;;1.65;;
66298;SDS011;53098;47.658;8.578;2023-07-20T00:35:01;5.35;;;1.40;;
66298;SDS011;53098;47.658;8.578;2023-07-20T00:37:26;6.18;;;1.70;;
66298;SDS011;53098;47.658;8.578;2023-07-20T00:39:52;3.85;;;1.42;;
66298;SDS011;53098;47.658;8.578;2023-07-20T00:42:18;4.22;;;1.33;;
66298;SDS011;53098;47.658;8.578;2023-07-20T00:44:43;3.92;;;1.00;;
66298;SDS011;53098;47.658;8.578;2023-07-20T00:47:09;7.32;;;1.38;;
66298;SDS011;53098;47.658;8.578;2023-07-20T00:49:34;5.80;;;1.27;;
66298;SDS011;53098;47.658;8.578;2023-07-20T00:52:00;3.55;;;1.33;;
66298;SDS011;53098;47.658;8.578;2023-07-20T00:54:26;5.78;;;1.40;;
66298;SDS011;53098;47.658;8.578;2023-07-20T00:56:53;1.92;;;1.02;;
66298;SDS011;53098;47.658;8.578;2023-07-20T00:59:19;4.63;;;1.25;;
66298;SDS011;53098;47.658;8.578;2023-07-20T01:01:45;4.30;;;1.55;;
66298;SDS011;53098;47.658;8.578;2023-07-20T01:04:11;2.85;;;1.10;;
66298;SDS011;53098;47.658;8.578;2023-07-20T01:11:38;5.95;;;2.25;;
66298;SDS011;53098;47.658;8.578;2023-07-20T01:14:18;3.63;;;1.25;;
66298;SDS011;53098;47.658;8.578;2023-07-20T01:16:45;5.38;;;1.13;;
66298;SDS011;53098;47.658;8.578;2023-07-20T01:19:10;3.65;;;1.38;;
66298;SDS011;53098;47.658;8.578;2023-07-20T01:21:39;7.22;;;1.75;;
66298;SDS011;53098;47.658;8.578;2023-07-20T01:32:24;3.83;;;1.45;;
66298;SDS011;53098;47.658;8.578;2023-07-20T01:34:50;6.43;;;1.95;;
66298;SDS011;53098;47.658;8.578;2023-07-20T01:37:19;3.90;;;1.52;;
66298;SDS011;53098;47.658;8.578;2023-07-20T01:39:45;4.22;;;1.30;;
66298;SDS011;53098;47.658;8.578;2023-07-20T01:42:11;5.22;;;1.52;;
66298;SDS011;53098;47.658;8.578;2023-07-20T01:44:37;5.90;;;1.52;;
66298;SDS011;53098;47.658;8.578;2023-07-20T01:47:03;6.13;;;1.55;;
66298;SDS011;53098;47.658;8.578;2023-07-20T01:49:29;5.72;;;1.23;;
66298;SDS011;53098;47.658;8.578;2023-07-20T01:51:54;6.38;;;1.20;;
66298;SDS011;53098;47.658;8.578;2023-07-20T01:54:20;5.18;;;1.50;;
66298;SDS011;53098;47.658;8.578;2023-07-20T01:56:45;5.00;;;1.83;;
66298;SDS011;53098;47.658;8.578;2023-07-20T01:59:10;4.00;;;1.30;;
66298;SDS011;53098;47.658;8.578;2023-07-20T02:01:36;5.80;;;1.60;;
66298;SDS011;53098;47.658;8.578;2023-07-20T02:04:01;6.32;;;1.40;;
66298;SDS011;53098;47.658;8.578;2023-07-20T02:06:27;4.03;;;1.23;;
66298;SDS011;53098;47.658;8.578;2023-07-20T02:08:52;3.80;;;1.35;;
66298;SDS011;53098;47.658;8.578;2023-07-20T02:11:17;3.70;;;1.30;;
66298;SDS011;53098;47.658;8.578;2023-07-20T02:13:43;7.57;;;1.33;;
66298;SDS011;53098;47.658;8.578;2023-07-20T02:16:08;5.45;;;1.60;;
66298;SDS011;53098;47.658;8.578;2023-07-20T02:18:34;5.65;;;1.35;;
66298;SDS011;53098;47.658;8.578;2023-07-20T02:20:59;7.05;;;1.38;;
66298;SDS011;53098;47.658;8.578;2023-07-20T02:23:24;8.65;;;1.42;;
66298;SDS011;53098;47.658;8.578;2023-07-20T02:25:50;5.78;;;1.50;;
66298;SDS011;53098;47.658;8.578;2023-07-20T02:28:15;6.95;;;1.52;;
66298;SDS011;53098;47.658;8.578;2023-07-20T02:30:41;6.07;;;1.17;;
66298;SDS011;53098;47.658;8.578;2023-07-20T02:33:06;8.65;;;1.60;;
66298;SDS011;53098;47.658;8.578;2023-07-20T02:35:32;7.10;;;1.60;;
66298;SDS011;53098;47.658;8.578;2023-07-20T02:37:58;4.15;;;1.23;;
66298;SDS011;53098;47.658;8.578;2023-07-20T02:40:23;6.57;;;0.90;;
66298;SDS011;53098;47.658;8.578;2023-07-20T02:42:48;3.08;;;1.30;;
66298;SDS011;53098;47.658;8.578;2023-07-20T02:45:14;4.95;;;1.23;;
66298;SDS011;53098;47.658;8.578;2023-07-20T02:47:39;6.30;;;1.48;;
66298;SDS011;53098;47.658;8.578;2023-07-20T02:50:06;5.03;;;1.25;;
66298;SDS011;53098;47.658;8.578;2023-07-20T02:52:33;7.32;;;1.40;;
66298;SDS011;53098;47.658;8.578;2023-07-20T02:54:58;3.72;;;1.45;;
66298;SDS011;53098;47.658;8.578;2023-07-20T02:57:24;6.63;;;1.50;;
66298;SDS011;53098;47.658;8.578;2023-07-20T02:59:49;5.82;;;1.60;;
66298;SDS011;53098;47.658;8.578;2023-07-20T03:02:15;6.30;;;1.83;;
66298;SDS011;53098;47.658;8.578;2023-07-20T03:04:40;4.80;;;1.50;;
66298;SDS011;53098;47.658;8.578;2023-07-20T03:07:05;5.55;;;1.50;;
66298;SDS011;53098;47.658;8.578;2023-07-20T03:09:31;4.45;;;1.30;;
66298;SDS011;53098;47.658;8.578;2023-07-20T03:11:56;3.65;;;1.42;;
66298;SDS011;53098;47.658;8.578;2023-07-20T03:14:22;5.82;;;2.15;;
66298;SDS011;53098;47.658;8.578;2023-07-20T03:16:47;5.28;;;1.98;;
66298;SDS011;53098;47.658;8.578;2023-07-20T03:19:13;7.97;;;1.50;;
66298;SDS011;53098;47.658;8.578;2023-07-20T03:21:38;8.05;;;1.50;;
66298;SDS011;53098;47.658;8.578;2023-07-20T03:24:03;5.85;;;1.40;;
66298;SDS011;53098;47.658;8.578;2023-07-20T03:26:29;3.10;;;1.30;;
66298;SDS011;53098;47.658;8.578;2023-07-20T03:28:54;4.93;;;1.35;;
66298;SDS011;53098;47.658;8.578;2023-07-20T03:31:20;8.02;;;1.40;;
66298;SDS011;53098;47.658;8.578;2023-07-20T03:33:45;6.28;;;1.40;;
66298;SDS011;53098;47.658;8.578;2023-07-20T03:36:11;5.32;;;1.20;;
66298;SDS011;53098;47.658;8.578;2023-07-20T03:38:36;7.00;;;1.50;;
66298;SDS011;53098;47.658;8.578;2023-07-20T03:41:01;3.33;;;1.25;;
66298;SDS011;53098;47.658;8.578;2023-07-20T03:43:27;7.65;;;1.70;;
66298;SDS011;53098;47.658;8.578;2023-07-20T03:45:53;3.55;;;1.38;;
66298;SDS011;53098;47.658;8.578;2023-07-20T03:48:23;5.10;;;1.67;;
66298;SDS011;53098;47.658;8.578;2023-07-20T03:50:50;3.75;;;1.67;;
66298;SDS011;53098;47.658;8.578;2023-07-20T03:53:16;5.38;;;1.70;;
66298;SDS011;53098;47.658;8.578;2023-07-20T03:55:45;6.22;;;1.50;;
66298;SDS011;53098;47.658;8.578;2023-07-20T03:58:12;5.50;;;1.55;;
66298;SDS011;53098;47.658;8.578;2023-07-20T04:00:38;4.93;;;1.35;;
66298;SDS011;53098;47.658;8.578;2023-07-20T04:03:03;4.53;;;1.60;;
66298;SDS011;53098;47.658;8.578;2023-07-20T04:05:29;4.68;;;2.10;;
66298;SDS011;53098;47.658;8.578;2023-07-20T04:07:55;6.40;;;1.60;;
66298;SDS011;53098;47.658;8.578;2023-07-20T04:10:20;5.55;;;1.30;;
66298;SDS011;53098;47.658;8.578;2023-07-20T04:12:45;4.50;;;1.60;;
66298;SDS011;53098;47.658;8.578;2023-07-20T04:15:11;4.80;;;1.38;;
66298;SDS011;53098;47.658;8.578;2023-07-20T04:17:36;6.40;;;1.67;;
66298;SDS011;53098;47.658;8.578;2023-07-20T04:20:02;4.72;;;1.75;;
66298;SDS011;53098;47.658;8.578;2023-07-20T04:22:28;5.88;;;1.60;;
66298;SDS011;53098;47.658;8.578;2023-07-20T04:24:53;4.97;;;1.85;;
66298;SDS011;53098;47.658;8.578;2023-07-20T04:27:19;8.43;;;1.42;;
66298;SDS011;53098;47.658;8.578;2023-07-20T04:29:44;6.20;;;1.60;;
66298;SDS011;53098;47.658;8.578;2023-07-20T04:32:10;5.85;;;2.20;;
66298;SDS011;53098;47.658;8.578;2023-07-20T04:34:35;5.45;;;1.80;;
66298;SDS011;53098;47.658;8.578;2023-07-20T04:37:01;7.25;;;1.80;;
66298;SDS011;53098;47.658;8.578;2023-07-20T04:39:26;5.45;;;1.58;;
66298;SDS011;53098;47.658;8.578;2023-07-20T04:41:51;7.03;;;1.90;;
66298;SDS011;53098;47.658;8.578;2023-07-20T04:44:17;5.10;;;1.60;;
66298;SDS011;53098;47.658;8.578;2023-07-20T04:46:42;6.80;;;1.75;;
66298;SDS011;53098;47.658;8.578;2023-07-20T04:49:08;4.32;;;1.40;;
66298;SDS011;53098;47.658;8.578;2023-07-20T04:51:33;4.03;;;1.70;;
66298;SDS011;53098;47.658;8.578;2023-07-20T04:53:59;7.22;;;2.10;;
66298;SDS011;53098;47.658;8.578;2023-07-20T04:56:24;7.30;;;1.90;;
66298;SDS011;53098;47.658;8.578;2023-07-20T04:58:50;5.43;;;2.03;;
66298;SDS011;53098;47.658;8.578;2023-07-20T05:01:15;6.65;;;2.03;;
66298;SDS011;53098;47.658;8.578;2023-07-20T05:03:41;6.50;;;1.63;;
66298;SDS011;53098;47.658;8.578;2023-07-20T05:06:06;6.57;;;1.70;;
66298;SDS011;53098;47.658;8.578;2023-07-20T05:08:31;5.82;;;2.00;;
66298;SDS011;53098;47.658;8.578;2023-07-20T05:10:57;6.60;;;2.33;;
66298;SDS011;53098;47.658;8.578;2023-07-20T05:13:23;4.93;;;1.73;;
66298;SDS011;53098;47.658;8.578;2023-07-20T05:15:51;5.30;;;1.75;;
66298;SDS011;53098;47.658;8.578;2023-07-20T05:18:17;5.55;;;1.80;;
66298;SDS011;53098;47.658;8.578;2023-07-20T05:20:42;5.35;;;1.90;;
66298;SDS011;53098;47.658;8.578;2023-07-20T05:23:07;8.18;;;1.95;;
66298;SDS011;53098;47.658;8.578;2023-07-20T05:25:33;6.15;;;1.90;;
66298;SDS011;53098;47.658;8.578;2023-07-20T05:27:58;4.43;;;1.80;;
66298;SDS011;53098;47.658;8.578;2023-07-20T05:30:24;5.07;;;1.70;;
66298;SDS011;53098;47.658;8.578;2023-07-20T05:32:49;5.72;;;1.98;;
66298;SDS011;53098;47.658;8.578;2023-07-20T05:35:14;8.40;;;2.00;;
66298;SDS011;53098;47.658;8.578;2023-07-20T05:37:40;4.57;;;1.98;;
66298;SDS011;53098;47.658;8.578;2023-07-20T05:40:05;7.60;;;1.85;;
66298;SDS011;53098;47.658;8.578;2023-07-20T05:42:31;4.05;;;1.98;;
66298;SDS011;53098;47.658;8.578;2023-07-20T05:44:57;6.53;;;2.28;;
66298;SDS011;53098;47.658;8.578;2023-07-20T05:47:22;10.20;;;2.28;;
66298;SDS011;53098;47.658;8.578;2023-07-20T05:49:48;7.85;;;2.17;;
66298;SDS011;53098;47.658;8.578;2023-07-20T05:52:13;5.30;;;2.03;;
66298;SDS011;53098;47.658;8.578;2023-07-20T05:54:38;5.40;;;2.30;;
66298;SDS011;53098;47.658;8.578;2023-07-20T05:57:04;8.10;;;2.40;;
66298;SDS011;53098;47.658;8.578;2023-07-20T05:59:30;6.47;;;1.85;;
66298;SDS011;53098;47.658;8.578;2023-07-20T06:01:55;5.18;;;1.95;;
66298;SDS011;53098;47.658;8.578;2023-07-20T06:04:21;6.43;;;1.88;;
66298;SDS011;53098;47.658;8.578;2023-07-20T06:06:46;5.38;;;1.85;;
66298;SDS011;53098;47.658;8.578;2023-07-20T06:09:11;11.15;;;2.30;;
66298;SDS011;53098;47.658;8.578;2023-07-20T06:11:40;6.45;;;2.25;;
66298;SDS011;53098;47.658;8.578;2023-07-20T06:14:05;5.22;;;1.88;;
66298;SDS011;53098;47.658;8.578;2023-07-20T06:16:31;6.20;;;1.88;;
66298;SDS011;53098;47.658;8.578;2023-07-20T06:18:56;5.47;;;1.85;;
66298;SDS011;53098;47.658;8.578;2023-07-20T06:21:22;5.10;;;1.90;;
66298;SDS011;53098;47.658;8.578;2023-07-20T06:23:47;7.40;;;2.30;;
66298;SDS011;53098;47.658;8.578;2023-07-20T06:26:13;6.03;;;2.13;;
66298;SDS011;53098;47.658;8.578;2023-07-20T06:28:38;7.07;;;1.98;;
66298;SDS011;53098;47.658;8.578;2023-07-20T06:31:04;5.35;;;1.83;;
66298;SDS011;53098;47.658;8.578;2023-07-20T06:33:29;6.88;;;2.05;;
66298;SDS011;53098;47.658;8.578;2023-07-20T06:35:55;6.90;;;2.40;;
66298;SDS011;53098;47.658;8.578;2023-07-20T06:38:21;8.20;;;2.72;;
66298;SDS011;53098;47.658;8.578;2023-07-20T06:40:47;10.40;;;2.25;;
66298;SDS011;53098;47.658;8.578;2023-07-20T06:43:12;6.00;;;1.80;;
66298;SDS011;53098;47.658;8.578;2023-07-20T06:45:38;6.10;;;1.90;;
66298;SDS011;53098;47.658;8.578;2023-07-20T06:48:04;10.18;;;2.80;;
66298;SDS011;53098;47.658;8.578;2023-07-20T06:50:29;8.95;;;2.25;;
66298;SDS011;53098;47.658;8.578;2023-07-20T06:52:55;12.27;;;2.28;;
66298;SDS011;53098;47.658;8.578;2023-07-20T06:55:21;6.50;;;2.05;;
66298;SDS011;53098;47.658;8.578;2023-07-20T06:57:46;5.38;;;1.98;;
66298;SDS011;53098;47.658;8.578;2023-07-20T07:00:12;9.32;;;2.20;;
66298;SDS011;53098;47.658;8.578;2023-07-20T07:02:38;5.85;;;2.22;;
66298;SDS011;53098;47.658;8.578;2023-07-20T07:05:04;7.68;;;2.22;;
66298;SDS011;53098;47.658;8.578;2023-07-20T07:07:30;5.63;;;1.73;;
66298;SDS011;53098;47.658;8.578;2023-07-20T07:09:56;6.80;;;2.00;;
66298;SDS011;53098;47.658;8.578;2023-07-20T07:12:21;5.15;;;2.03;;
66298;SDS011;53098;47.658;8.578;2023-07-20T07:14:47;7.65;;;1.90;;
66298;SDS011;53098;47.658;8.578;2023-07-20T07:17:12;13.15;;;2.67;;
66298;SDS011;53098;47.658;8.578;2023-07-20T07:19:37;6.85;;;2.25;;
66298;SDS011;53098;47.658;8.578;2023-07-20T07:22:03;7.45;;;2.35;;
66298;SDS011;53098;47.658;8.578;2023-07-20T07:24:29;9.90;;;2.55;;
66298;SDS011;53098;47.658;8.578;2023-07-20T07:26:54;8.77;;;2.65;;
66298;SDS011;53098;47.658;8.578;2023-07-20T07:29:20;8.18;;;2.42;;
66298;SDS011;53098;47.658;8.578;2023-07-20T07:31:45;17.55;;;2.63;;
66298;SDS011;53098;47.658;8.578;2023-07-20T07:34:10;6.85;;;2.17;;
66298;SDS011;53098;47.658;8.578;2023-07-20T07:36:36;6.25;;;2.10;;
66298;SDS011;53098;47.658;8.578;2023-07-20T07:39:01;6.90;;;1.90;;
66298;SDS011;53098;47.658;8.578;2023-07-20T07:41:27;9.23;;;2.22;;
66298;SDS011;53098;47.658;8.578;2023-07-20T07:43:52;9.38;;;2.25;;
66298;SDS011;53098;47.658;8.578;2023-07-20T07:46:17;7.32;;;2.13;;
66298;SDS011;53098;47.658;8.578;2023-07-20T07:48:43;7.82;;;2.17;;
66298;SDS011;53098;47.658;8.578;2023-07-20T07:51:08;8.70;;;2.35;;
66298;SDS011;53098;47.658;8.578;2023-07-20T07:53:34;7.22;;;1.95;;
66298;SDS011;53098;47.658;8.578;2023-07-20T07:55:59;6.03;;;2.00;;
66298;SDS011;53098;47.658;8.578;2023-07-20T07:58:24;6.05;;;2.00;;
66298;SDS011;53098;47.658;8.578;2023-07-20T08:00:50;11.57;;;2.00;;
66298;SDS011;53098;47.658;8.578;2023-07-20T08:03:16;7.15;;;2.13;;
66298;SDS011;53098;47.658;8.578;2023-07-20T08:05:41;6.65;;;1.80;;
66298;SDS011;53098;47.658;8.578;2023-07-20T08:08:06;9.63;;;2.50;;
66298;SDS011;53098;47.658;8.578;2023-07-20T08:10:32;8.07;;;2.22;;
66298;SDS011;53098;47.658;8.578;2023-07-20T08:12:57;6.50;;;1.92;;
66298;SDS011;53098;47.658;8.578;2023-07-20T08:15:23;5.53;;;1.92;;
66298;SDS011;53098;47.658;8.578;2023-07-20T08:17:48;4.20;;;1.77;;
66298;SDS011;53098;47.658;8.578;2023-07-20T08:20:14;6.63;;;2.05;;
66298;SDS011;53098;47.658;8.578;2023-07-20T08:22:40;7.03;;;2.20;;
66298;SDS011;53098;47.658;8.578;2023-07-20T08:25:06;6.50;;;2.05;;
66298;SDS011;53098;47.658;8.578;2023-07-20T08:27:32;7.13;;;1.92;;
66298;SDS011;53098;47.658;8.578;2023-07-20T08:29:57;7.95;;;2.22;;
66298;SDS011;53098;47.658;8.578;2023-07-20T08:32:22;7.45;;;2.13;;
66298;SDS011;53098;47.658;8.578;2023-07-20T08:34:48;8.68;;;2.20;;
66298;SDS011;53098;47.658;8.578;2023-07-20T08:37:13;7.00;;;1.98;;
66298;SDS011;53098;47.658;8.578;2023-07-20T08:39:39;5.80;;;2.25;;
66298;SDS011;53098;47.658;8.578;2023-07-20T08:42:05;6.88;;;2.13;;
66298;SDS011;53098;47.658;8.578;2023-07-20T08:44:33;7.85;;;2.10;;
66298;SDS011;53098;47.658;8.578;2023-07-20T08:47:00;10.98;;;2.67;;
66298;SDS011;53098;47.658;8.578;2023-07-20T08:49:27;7.75;;;2.58;;
66298;SDS011;53098;47.658;8.578;2023-07-20T08:51:52;9.00;;;2.45;;
66298;SDS011;53098;47.658;8.578;2023-07-20T08:54:18;8.20;;;1.70;;
66298;SDS011;53098;47.658;8.578;2023-07-20T08:56:44;7.50;;;2.80;;
66298;SDS011;53098;47.658;8.578;2023-07-20T08:59:10;7.88;;;2.30;;
66298;SDS011;53098;47.658;8.578;2023-07-20T09:01:41;6.38;;;2.33;;
66298;SDS011;53098;47.658;8.578;2023-07-20T09:04:06;9.15;;;2.00;;
66298;SDS011;53098;47.658;8.578;2023-07-20T09:06:32;7.53;;;1.95;;
66298;SDS011;53098;47.658;8.578;2023-07-20T09:08:57;4.47;;;1.77;;
66298;SDS011;53098;47.658;8.578;2023-07-20T09:11:23;10.43;;;2.10;;
66298;SDS011;53098;47.658;8.578;2023-07-20T09:14:01;9.68;;;1.95;;
66298;SDS011;53098;47.658;8.578;2023-07-20T09:16:27;7.70;;;2.13;;
66298;SDS011;53098;47.658;8.578;2023-07-20T09:18:53;8.55;;;1.90;;
66298;SDS011;53098;47.658;8.578;2023-07-20T09:21:18;8.48;;;1.85;;
66298;SDS011;53098;47.658;8.578;2023-07-20T09:23:44;6.18;;;1.90;;
66298;SDS011;53098;47.658;8.578;2023-07-20T09:26:10;7.25;;;1.83;;
66298;SDS011;53098;47.658;8.578;2023-07-20T09:28:41;9.23;;;1.77;;
66298;SDS011;53098;47.658;8.578;2023-07-20T09:31:15;19.95;;;2.45;;
66298;SDS011;53098;47.658;8.578;2023-07-20T09:36:10;8.18;;;1.92;;
66298;SDS011;53098;47.658;8.578;2023-07-20T09:38:36;8.90;;;2.17;;
66298;SDS011;53098;47.658;8.578;2023-07-20T09:41:01;7.28;;;1.90;;
66298;SDS011;53098;47.658;8.578;2023-07-20T09:43:28;5.53;;;1.80;;
66298;SDS011;53098;47.658;8.578;2023-07-20T09:45:57;8.70;;;1.85;;
66298;SDS011;53098;47.658;8.578;2023-07-20T09:48:24;6.03;;;1.80;;
66298;SDS011;53098;47.658;8.578;2023-07-20T09:50:50;8.32;;;1.60;;
66298;SDS011;53098;47.658;8.578;2023-07-20T09:53:16;4.15;;;1.73;;
66298;SDS011;53098;47.658;8.578;2023-07-20T09:55:44;7.97;;;2.03;;
66298;SDS011;53098;47.658;8.578;2023-07-20T09:58:10;6.78;;;2.13;;
66298;SDS011;53098;47.658;8.578;2023-07-20T10:00:36;4.55;;;1.58;;
66298;SDS011;53098;47.658;8.578;2023-07-20T10:03:03;3.67;;;1.35;;
66298;SDS011;53098;47.658;8.578;2023-07-20T10:05:34;4.90;;;1.60;;
66298;SDS011;53098;47.658;8.578;2023-07-20T10:08:03;8.63;;;1.75;;
66298;SDS011;53098;47.658;8.578;2023-07-20T10:10:33;5.63;;;1.65;;
66298;SDS011;53098;47.658;8.578;2023-07-20T10:13:00;6.90;;;1.73;;
66298;SDS011;53098;47.658;8.578;2023-07-20T10:20:56;7.32;;;1.52;;
66298;SDS011;53098;47.658;8.578;2023-07-20T10:23:24;5.53;;;1.40;;
66298;SDS011;53098;47.658;8.578;2023-07-20T10:25:51;3.97;;;1.08;;
66298;SDS011;53098;47.658;8.578;2023-07-20T10:28:17;4.15;;;1.33;;
66298;SDS011;53098;47.658;8.578;2023-07-20T10:30:43;5.90;;;1.27;;
66298;SDS011;53098;47.658;8.578;2023-07-20T10:33:09;3.55;;;1.33;;
66298;SDS011;53098;47.658;8.578;2023-07-20T10:35:54;5.53;;;1.80;;
66298;SDS011;53098;47.658;8.578;2023-07-20T10:41:40;4.60;;;1.35;;
66298;SDS011;53098;47.658;8.578;2023-07-20T10:44:08;5.70;;;1.75;;
66298;SDS011;53098;47.658;8.578;2023-07-20T10:49:09;4.32;;;1.38;;
66298;SDS011;53098;47.658;8.578;2023-07-20T10:54:08;3.90;;;1.33;;
66298;SDS011;53098;47.658;8.578;2023-07-20T10:56:34;6.50;;;1.58;;
66298;SDS011;53098;47.658;8.578;2023-07-20T10:59:00;3.30;;;1.40;;
66298;SDS011;53098;47.658;8.578;2023-07-20T11:01:29;4.65;;;1.60;;
66298;SDS011;53098;47.658;8.578;2023-07-20T11:03:57;4.03;;;1.30;;
66298;SDS011;53098;47.658;8.578;2023-07-20T11:09:09;4.25;;;1.38;;
66298;SDS011;53098;47.658;8.578;2023-07-20T11:11:35;7.38;;;1.63;;
66298;SDS011;53098;47.658;8.578;2023-07-20T11:14:03;5.57;;;1.38;;
66298;SDS011;53098;47.658;8.578;2023-07-20T11:16:46;7.05;;;1.50;;
66298;SDS011;53098;47.658;8.578;2023-07-20T11:19:23;6.88;;;1.65;;
66298;SDS011;53098;47.658;8.578;2023-07-20T11:21:54;6.45;;;1.55;;
66298;SDS011;53098;47.658;8.578;2023-07-20T11:24:21;4.53;;;1.33;;
66298;SDS011;53098;47.658;8.578;2023-07-20T11:26:47;4.95;;;1.50;;
66298;SDS011;53098;47.658;8.578;2023-07-20T11:29:18;8.10;;;1.88;;
66298;SDS011;53098;47.658;8.578;2023-07-20T11:31:48;4.47;;;1.73;;
66298;SDS011;53098;47.658;8.578;2023-07-20T11:36:49;5.53;;;1.42;;
66298;SDS011;53098;47.658;8.578;2023-07-20T11:39:16;4.55;;;1.23;;
66298;SDS011;53098;47.658;8.578;2023-07-20T11:41:44;5.47;;;1.40;;
66298;SDS011;53098;47.658;8.578;2023-07-20T11:44:13;7.65;;;1.40;;
66298;SDS011;53098;47.658;8.578;2023-07-20T11:46:43;4.63;;;1.52;;
66298;SDS011;53098;47.658;8.578;2023-07-20T11:49:09;4.60;;;1.52;;
66298;SDS011;53098;47.658;8.578;2023-07-20T11:51:35;2.88;;;1.20;;
66298;SDS011;53098;47.658;8.578;2023-07-20T11:54:02;6.30;;;1.63;;
66298;SDS011;53098;47.658;8.578;2023-07-20T11:56:28;4.15;;;1.40;;
66298;SDS011;53098;47.658;8.578;2023-07-20T11:58:59;8.05;;;1.60;;
66298;SDS011;53098;47.658;8.578;2023-07-20T12:01:26;7.72;;;1.52;;
66298;SDS011;53098;47.658;8.578;2023-07-20T12:03:52;4.68;;;1.48;;
66298;SDS011;53098;47.658;8.578;2023-07-20T12:06:17;5.85;;;1.20;;
66298;SDS011;53098;47.658;8.578;2023-07-20T12:08:43;4.88;;;1.42;;
66298;SDS011;53098;47.658;8.578;2023-07-20T12:11:09;5.65;;;1.40;;
66298;SDS011;53098;47.658;8.578;2023-07-20T12:13:38;6.78;;;1.45;;
66298;SDS011;53098;47.658;8.578;2023-07-20T12:16:10;7.97;;;1.60;;
66298;SDS011;53098;47.658;8.578;2023-07-20T12:18:39;4.70;;;1.33;;
66298;SDS011;53098;47.658;8.578;2023-07-20T12:21:05;6.32;;;1.70;;
66298;SDS011;53098;47.658;8.578;2023-07-20T12:23:36;4.28;;;1.70;;
66298;SDS011;53098;47.658;8.578;2023-07-20T12:26:03;3.35;;;1.30;;
66298;SDS011;53098;47.658;8.578;2023-07-20T12:28:31;4.90;;;1.30;;
66298;SDS011;53098;47.658;8.578;2023-07-20T12:30:56;2.92;;;1.40;;
66298;SDS011;53098;47.658;8.578;2023-07-20T12:33:22;7.40;;;1.50;;
66298;SDS011;53098;47.658;8.578;2023-07-20T12:35:48;5.57;;;1.95;;
66298;SDS011;53098;47.658;8.578;2023-07-20T12:38:14;3.85;;;1.20;;
66298;SDS011;53098;47.658;8.578;2023-07-20T12:40:39;4.63;;;1.40;;
66298;SDS011;53098;47.658;8.578;2023-07-20T12:43:05;4.97;;;1.60;;
66298;SDS011;53098;47.658;8.578;2023-07-20T12:45:30;7.82;;;1.45;;
66298;SDS011;53098;47.658;8.578;2023-07-20T12:47:56;4.28;;;1.40;;
66298;SDS011;53098;47.658;8.578;2023-07-20T12:50:21;3.60;;;1.55;;
66298;SDS011;53098;47.658;8.578;2023-07-20T12:52:46;3.58;;;1.33;;
66298;SDS011;53098;47.658;8.578;2023-07-20T12:55:12;5.63;;;2.03;;
66298;SDS011;53098;47.658;8.578;2023-07-20T12:57:37;4.68;;;1.40;;
66298;SDS011;53098;47.658;8.578;2023-07-20T13:00:03;4.53;;;1.60;;
66298;SDS011;53098;47.658;8.578;2023-07-20T13:02:32;2.90;;;1.17;;
66298;SDS011;53098;47.658;8.578;2023-07-20T13:04:57;2.88;;;1.10;;
66298;SDS011;53098;47.658;8.578;2023-07-20T13:07:29;3.40;;;1.50;;
66298;SDS011;53098;47.658;8.578;2023-07-20T13:09:56;6.30;;;1.55;;
66298;SDS011;53098;47.658;8.578;2023-07-20T13:12:21;4.18;;;1.27;;
66298;SDS011;53098;47.658;8.578;2023-07-20T13:14:46;6.13;;;1.63;;
66298;SDS011;53098;47.658;8.578;2023-07-20T13:17:12;5.22;;;1.48;;
66298;SDS011;53098;47.658;8.578;2023-07-20T13:19:37;4.28;;;1.20;;
66298;SDS011;53098;47.658;8.578;2023-07-20T13:22:03;6.03;;;1.25;;
66298;SDS011;53098;47.658;8.578;2023-07-20T13:24:29;3.75;;;1.30;;
66298;SDS011;53098;47.658;8.578;2023-07-20T13:26:54;4.88;;;1.60;;
66298;SDS011;53098;47.658;8.578;2023-07-20T13:29:19;6.80;;;1.65;;
66298;SDS011;53098;47.658;8.578;2023-07-20T13:31:45;5.53;;;1.52;;
66298;SDS011;53098;47.658;8.578;2023-07-20T13:34:10;5.25;;;1.50;;
66298;SDS011;53098;47.658;8.578;2023-07-20T13:36:36;4.65;;;1.65;;
66298;SDS011;53098;47.658;8.578;2023-07-20T13:39:01;4.85;;;1.45;;
66298;SDS011;53098;47.658;8.578;2023-07-20T13:41:27;5.35;;;1.38;;
66298;SDS011;53098;47.658;8.578;2023-07-20T13:43:52;4.45;;;1.42;;
66298;SDS011;53098;47.658;8.578;2023-07-20T13:46:17;5.18;;;1.70;;
66298;SDS011;53098;47.658;8.578;2023-07-20T13:48:43;5.10;;;1.45;;
66298;SDS011;53098;47.658;8.578;2023-07-20T13:51:08;8.40;;;1.70;;
66298;SDS011;53098;47.658;8.578;2023-07-20T13:53:34;6.22;;;1.92;;
66298;SDS011;53098;47.658;8.578;2023-07-20T13:55:59;5.95;;;2.03;;
66298;SDS011;53098;47.658;8.578;2023-07-20T13:58:25;5.70;;;1.52;;
66298;SDS011;53098;47.658;8.578;2023-07-20T14:00:50;4.05;;;1.70;;
66298;SDS011;53098;47.658;8.578;2023-07-20T14:03:15;8.90;;;1.52;;
66298;SDS011;53098;47.658;8.578;2023-07-20T14:05:41;4.65;;;1.50;;
66298;SDS011;53098;47.658;8.578;2023-07-20T14:08:06;4.93;;;1.42;;
66298;SDS011;53098;47.658;8.578;2023-07-20T14:10:32;3.42;;;1.40;;
66298;SDS011;53098;47.658;8.578;2023-07-20T14:12:57;5.88;;;1.30;;
66298;SDS011;53098;47.658;8.578;2023-07-20T14:15:23;4.90;;;1.30;;
66298;SDS011;53098;47.658;8.578;2023-07-20T14:17:48;6.15;;;1.75;;
66298;SDS011;53098;47.658;8.578;2023-07-20T14:20:13;5.22;;;1.40;;
66298;SDS011;53098;47.658;8.578;2023-07-20T14:22:39;4.85;;;1.40;;
66298;SDS011;53098;47.658;8.578;2023-07-20T14:25:04;3.50;;;1.38;;
66298;SDS011;53098;47.658;8.578;2023-07-20T14:27:30;4.72;;;1.30;;
66298;SDS011;53098;47.658;8.578;2023-07-20T14:29:55;2.90;;;1.33;;
66298;SDS011;53098;47.658;8.578;2023-07-20T14:32:21;4.43;;;1.23;;
66298;SDS011;53098;47.658;8.578;2023-07-20T14:34:46;4.63;;;1.60;;
66298;SDS011;53098;47.658;8.578;2023-07-20T14:37:11;4.47;;;1.33;;
66298;SDS011;53098;47.658;8.578;2023-07-20T14:39:37;4.80;;;1.20;;
66298;SDS011;53098;47.658;8.578;2023-07-20T14:42:02;5.50;;;1.45;;
66298;SDS011;53098;47.658;8.578;2023-07-20T14:44:28;4.53;;;1.42;;
66298;SDS011;53098;47.658;8.578;2023-07-20T14:46:53;4.82;;;1.38;;
66298;SDS011;53098;47.658;8.578;2023-07-20T14:49:19;4.82;;;1.42;;
66298;SDS011;53098;47.658;8.578;2023-07-20T14:51:44;7.50;;;1.35;;
66298;SDS011;53098;47.658;8.578;2023-07-20T14:54:10;6.20;;;1.52;;
66298;SDS011;53098;47.658;8.578;2023-07-20T14:56:37;5.47;;;1.27;;
66298;SDS011;53098;47.658;8.578;2023-07-20T14:59:03;4.97;;;1.65;;
66298;SDS011;53098;47.658;8.578;2023-07-20T15:01:29;3.55;;;1.55;;
66298;SDS011;53098;47.658;8.578;2023-07-20T15:03:54;6.07;;;1.33;;
66298;SDS011;53098;47.658;8.578;2023-07-20T15:06:20;5.95;;;1.63;;
66298;SDS011;53098;47.658;8.578;2023-07-20T15:08:45;5.22;;;1.65;;
66298;SDS011;53098;47.658;8.578;2023-07-20T15:11:10;3.97;;;1.42;;
66298;SDS011;53098;47.658;8.578;2023-07-20T15:13:36;6.22;;;1.58;;
66298;SDS011;53098;47.658;8.578;2023-07-20T15:16:01;7.32;;;1.52;;